x

West Dixon Entrance (46205) Wave Buoy

9:00am - Tue 27th Sep 2016 All times are PDT. -7 hours from GMT.

  • Sig Wave height 6.2ft
  • Peak Period 6s
  • Wind
    9mph, 11mph gusts
  • Sea Temp 58°f
  • Air Temp 56°f
  • Sea Pressure 1023.3mb
  • West Dixon Entrance
  • West Dixon Entrance

More Historic Weather Station data

Upgrade to MSW Pro to gain access to the past 30 days of data for over 8000 Wavebouys and Weather Stations around the globe.

Join Pro

Comparision Forecast

View Surf forecast
   
Tue 09/27 9:00am 6ft 6s 9 11 mph 1023.3mb 58f 56f
8:00am 6ft 7s 9 13 mph 1023.1mb 58f 55f
7:00am 6ft 8s 18 20 mph 1022.9mb 58f 55f
6:00am 6ft 8s 13 18 mph 1022.7mb 58f 54f
5:00am 6ft 8s 9 11 mph 1022.4mb 58f 55f
4:00am 6ft 10s 16 18 mph 1022mb 58f 56f
3:00am 6ft 10s 16 18 mph 1021.5mb 58f 56f
2:00am 5.5ft 9s 18 22 mph 1020.8mb 58f 56f
1:00am 6ft 16s 18 22 mph 1020.2mb 58f 55f
12:00am 6ft 16s 18 22 mph 1019.6mb 58f 56f
Mon 09/26 11:00pm 5.5ft 10s 18 22 mph 1019mb 58f 56f
10:00pm 5.5ft 9s 18 22 mph 1018.4mb 58f 56f
9:00pm 5.5ft 16s 16 20 mph 1018mb 59f 55f
8:00pm 6ft 8s 13 18 mph 1017.5mb 59f 55f
7:00pm 5.5ft 9s 16 20 mph 1016.9mb 59f 55f
6:00pm 6ft 9s 13 16 mph 1016.5mb 59f 55f
5:00pm 7ft 8s 13 16 mph 1016.5mb 59f 55f
4:00pm 6.5ft 9s 22 27 mph 1016.1mb 59f 54f
3:00pm 6.5ft 10s 13 16 mph 1015.6mb 59f 56f
2:00pm 6ft 10s 13 18 mph 1015.3mb 59f 56f
1:00pm 6.5ft 9s 16 18 mph 1015mb 58f 55f
12:00pm 6.5ft 8s 16 18 mph 1014.3mb 58f 56f
11:00am 7ft 17s 16 18 mph 1013.6mb 58f 56f
10:00am 6.5ft 9s 13 18 mph 1013.1mb 58f 56f
9:00am 7ft 9s 16 20 mph 1012.7mb 58f 56f
8:00am 6.5ft 8s 13 18 mph 1012.4mb 58f 56f
7:00am 7ft 8s 13 16 mph 1011.8mb 58f 56f
6:00am 7ft 8s 16 20 mph 1011.5mb 58f 56f
5:00am 7ft 8s 16 20 mph 1011.2mb 58f 56f
4:00am 7.5ft 8s 16 18 mph 1010.7mb 59f 56f
3:00am 8ft 10s 13 16 mph 1010mb 59f 55f
2:00am 8ft 8s 13 18 mph 1009.4mb 59f 55f
1:00am 8ft 8s 16 20 mph 1008.9mb 58f 55f
12:00am 9ft 6s 16 20 mph 1008mb 58f 54f
Sun 09/25 11:00pm 9ft 8s 18 22 mph 1006.5mb 58f 54f
10:00pm 9ft 8s 22 29 mph 1005.9mb 58f 54f
9:00pm 7ft 9s 27 36 mph 1004.5mb 58f 54f
8:00pm 7ft 9s 27 31 mph 1003.8mb 58f 54f
7:00pm 7ft 10s 25 29 mph 1004mb 58f 54f
6:00pm 7.5ft 10s 22 29 mph 1005mb 58f 55f
5:00pm 7.5ft 10s 20 25 mph 1007.8mb 58f 55f
4:00pm 8ft 10s 13 18 mph 1009.5mb 58f 55f
3:00pm 9ft 10s 13 16 mph 1010.8mb 58f 55f
2:00pm 8.5ft 8s 13 18 mph 1012.3mb 58f 56f
1:00pm 8.5ft 10s 7 9 mph 1013.7mb 58f 55f
12:00pm 8.5ft 11s 4 7 mph 1014.7mb 58f 55f
11:00am 8ft 9s  -  2 mph 1014.9mb 58f 55f
10:00am 8ft 9s  -  2 mph 1014.3mb 58f 55f
9:00am 8ft 10s 2 4 mph 1014.5mb 58f 55f
8:00am 9ft 10s 4 9 mph 1014.8mb 58f 55f
7:00am 9ft 10s 11 13 mph 1014.6mb 58f 56f
6:00am 9ft 9s 9 13 mph 1014.5mb 58f 57f
5:00am 8ft 9s 9 11 mph 1014mb 58f 56f
4:00am 8ft 9s 9 11 mph 1014.3mb 58f 57f
3:00am 9ft 10s 7 9 mph 1013.9mb 58f 57f
2:00am 9ft 8s 7 9 mph 1014.1mb 58f 57f
1:00am 9ft 10s 7 9 mph 1014.1mb 58f 57f
12:00am 9.5ft 8s 9 11 mph 1013.7mb 58f 57f
Sat 09/24 11:00pm 10ft 8s 9 11 mph 1013.5mb 58f 57f
10:00pm 10ft 9s 13 16 mph 1013.5mb 58f 57f
9:00pm 10.5ft 8s 11 16 mph 1013.5mb 58f 57f
8:00pm 10.5ft 8s 16 18 mph 1013.3mb 58f 56f
7:00pm 10.5ft 7s 25 29 mph 1012.9mb 58f 56f
6:00pm 11ft 8s 27 31 mph 1013.2mb 58f 56f
5:00pm 11ft 10s 27 31 mph 1013.7mb 58f 57f
4:00pm 10.5ft 8s 27 34 mph 1013.9mb 58f 56f
3:00pm 11ft 7s 27 31 mph 1014.3mb 58f 56f
2:00pm 10ft 8s 25 29 mph 1014.6mb 58f 58f
1:00pm 10ft 10s 25 31 mph 1014.7mb 58f 57f
12:00pm 10ft 7s 27 31 mph 1015.1mb 58f 57f
11:00am 9ft 11s 22 29 mph 1014.6mb 58f 58f
10:00am 9.5ft 11s 25 31 mph 1014.5mb 58f 58f
9:00am 9ft 9s 22 29 mph 1014.2mb 58f 57f
8:00am 9ft 10s 27 36 mph 1014mb 59f 55f
7:00am 8.5ft 9s 27 36 mph 1013.9mb 59f 58f
6:00am 8.5ft 11s 27 34 mph 1014.1mb 59f 59f
5:00am 8ft 11s 22 27 mph 1014.9mb 59f 59f
4:00am 8.5ft 12s 20 27 mph 1015.7mb 59f 59f
3:00am 8ft 11s 20 25 mph 1016.3mb 58f 58f
2:00am 7ft 11s 16 20 mph 1016.5mb 58f 58f
1:00am 8ft 11s 16 20 mph 1016.7mb 58f 58f
12:00am 8.5ft 11s 11 13 mph 1016.2mb 58f 58f
Fri 09/23 11:00pm 8ft 12s 13 18 mph 1016mb 58f 57f
10:00pm 8.5ft 12s 11 16 mph 1015.4mb 58f 57f
9:00pm 8.5ft 12s 11 13 mph 1014.9mb 58f 56f
8:00pm 9ft 11s 13 18 mph 1014.4mb 58f 57f
7:00pm 9ft 12s 13 18 mph 1014mb 58f 57f
6:00pm 8.5ft 11s 11 13 mph 1013.6mb 59f 58f